Aérodrome :
LOGIN :

S'inscrire | Disclaimer

   EN    FR    IT 

 










Légende :    VFR   VFR Marginal   IFR   IFR Intensif   IFR Très Intensif
Visi : 
Plafond : 
>= 8 km
>= 3000ft
5 à 8 km
1000 à 3000 ft
1500m à 5 km
500 à 1000 ft
800 à 1500m
200 à 500 ft
< 800m
< 200 ft
Symboles :   Orages  Brouillard  Fortes neiges  Fortes précipitations  Vent > 20 kt
SIGMETs :   Divers  Orages  Givrage  Turbulence  Onde Orograph.  Cendres Volcan.







- Altitude de l'aérodrome : 788 ft
- Code IATA : DCM
- Voir les cartes d'approche


LFCK - Castres-Mazamet

DERNIER METAR :
  • 191400Z AUTO 12032G45KT CAVOK 18/04 Q1023 NOSIG

METARs EXPIRÉS :
  • 191330Z AUTO 13029G42KT CAVOK 19/04 Q1023 NOSIG
  • 191300Z AUTO 12028G43KT CAVOK 19/06 Q1023 NOSIG
  • 191230Z AUTO 12026G37KT CAVOK 18/07 Q1023 TEMPO 12035G50KT
  • 191200Z AUTO 11030G45KT CAVOK 18/05 Q1023 NOSIG
  • 191130Z AUTO 12033G45KT CAVOK 20/06 Q1023 NOSIG

TAF TAF LFCK
Valide du 19 à 12h jusqu'au 19 à 21h UTC


191100Z 1912/1921 12025G40KT CAVOK
PROB30
TEMPO 1912/1916 12035G50KT
Pas de NOTAMs connus pour ce terrain.
1 SIGMET publié pour la FIR Bordeaux (LFBB) :
 
Turbulence forte
LFBB SIGMET 3 VALID 191300/191700 LFPW
LFBB BORDEAUX FIR/UIR SEV TURB FCST WI N4415 E00245 - N4230 E00230 - N4330 E00045 - N4415 E00245 SFC/FL060 STNR NC=



MET'MAP, la Météo Aéronautique d'un coup d'oeil ! - Copyright ORBIFLY Décembre 2007 - Disclaimer

ORBIFLY MET'MAP TEAM :

Programmation & Développement : Alexandra Zaïnal
Conception & Développement : Baudouin d'Aumeries
Co-Programmation & Développement : Marc-Olivier Méhu
Soutien technique & logistique : Manuel Goepfert

Contact : metmap@orbifly.com




SOURCES & CREDITS :

   NOAA